Time;durP1;ratioP1;P1;durP2;ratioP2;P2;SDS_P1;SDS_P2;PMS_P1;PMS_P2;Temp;Humidity;BMP_temperature;BMP_pressure;BME280_temperature;BME280_humidity;BME280_pressure;Samples;Min_cycle;Max_cycle;Signal;HPM_P1;HPM_P2
2022/09/11 00:01:26;;;;;;;35.20;16.08;;;;;;;9.55;55.66;100504.66;5032624;28;20052;-61
2022/09/11 00:03:53;;;;;;;35.25;15.98;;;;;;;9.50;56.14;100501.41;5033142;28;20030;-53
2022/09/11 00:06:19;;;;;;;32.15;16.27;;;;;;;9.47;55.97;100497.13;5023721;28;20049;-54
2022/09/11 00:08:45;;;;;;;31.90;16.42;;;;;;;9.46;55.83;100494.56;5013067;28;20046;-53
2022/09/11 00:11:16;;;;;;;40.78;16.20;;;;;;;9.39;55.79;100493.22;5012640;28;20034;-58
2022/09/11 00:13:44;;;;;;;43.30;16.02;;;;;;;9.40;55.90;100495.81;5013021;28;20025;-51
2022/09/11 00:16:32;;;;;;;35.58;15.32;;;;;;;9.43;56.15;100503.63;5012873;28;20038;-53
2022/09/11 00:19:00;;;;;;;34.40;15.65;;;;;;;9.35;56.19;100500.59;5026918;28;20060;-53
2022/09/11 00:21:28;;;;;;;35.67;16.48;;;;;;;9.32;56.60;100507.00;5032127;28;20039;-58
2022/09/11 00:23:54;;;;;;;36.00;15.98;;;;;;;9.29;56.63;100507.19;5031524;28;20439;-55
2022/09/11 00:26:20;;;;;;;34.97;15.27;;;;;;;9.24;56.83;100503.09;5014885;28;20069;-55
2022/09/11 00:28:46;;;;;;;36.15;16.80;;;;;;;9.25;56.73;100502.13;5012280;28;20038;-54
2022/09/11 00:31:18;;;;;;;34.58;15.98;;;;;;;9.26;56.97;100504.72;5020171;28;20041;-53
2022/09/11 00:33:44;;;;;;;38.38;16.33;;;;;;;9.17;57.00;100494.66;5031902;28;20029;-57
2022/09/11 00:36:13;;;;;;;33.13;16.05;;;;;;;9.22;56.86;100499.66;5031863;28;20051;-57
2022/09/11 00:38:39;;;;;;;43.33;15.90;;;;;;;9.20;56.96;100499.78;5020184;28;20398;-57
2022/09/11 00:41:12;;;;;;;39.50;16.30;;;;;;;9.20;57.16;100497.13;5012396;28;20087;-56
2022/09/11 00:43:55;;;;;;;35.97;15.57;;;;;;;9.24;57.05;100495.09;5015045;28;20040;-53
2022/09/11 00:46:23;;;;;;;43.45;15.80;;;;;;;9.16;57.30;100503.59;5032113;28;20070;-55
2022/09/11 00:48:49;;;;;;;37.47;15.88;;;;;;;9.11;57.48;100500.34;5031766;28;20147;-56
2022/09/11 00:51:24;;;;;;;38.90;15.65;;;;;;;9.15;57.59;100501.88;5023168;28;20030;-55
2022/09/11 00:53:53;;;;;;;41.20;15.82;;;;;;;9.09;57.35;100499.59;5011623;28;20494;-54
2022/09/11 00:56:22;;;;;;;36.22;14.60;;;;;;;9.04;57.33;100503.44;5012635;28;20471;-56
2022/09/11 00:58:52;;;;;;;37.85;15.63;;;;;;;8.99;57.88;100497.53;5031769;28;20547;-57
2022/09/11 01:01:17;;;;;;;31.73;14.88;;;;;;;8.81;57.92;100471.97;5029527;28;20037;-55
2022/09/11 01:03:43;;;;;;;37.95;15.73;;;;;;;8.85;58.17;100490.38;5017896;28;20033;-54
2022/09/11 01:06:09;;;;;;;32.92;14.77;;;;;;;8.96;58.00;100504.88;5012124;28;20137;-53
2022/09/11 01:08:35;;;;;;;33.22;16.13;;;;;;;8.94;58.19;100504.97;5014436;28;20466;-58
2022/09/11 01:11:00;;;;;;;34.17;15.65;;;;;;;8.91;57.84;100494.47;5031684;28;20021;-55
2022/09/11 01:13:38;;;;;;;31.27;15.40;;;;;;;8.98;57.78;100494.94;5031901;28;20036;-57
2022/09/11 01:16:27;;;;;;;33.45;15.63;;;;;;;8.98;57.83;100503.81;5016533;28;20076;-53
2022/09/11 01:18:59;;;;;;;35.33;15.32;;;;;;;8.78;57.85;100480.19;5011487;28;20226;-52
2022/09/11 01:21:40;;;;;;;34.45;15.38;;;;;;;8.84;58.37;100494.00;5021693;28;20124;-55
2022/09/11 01:24:17;;;;;;;36.13;15.57;;;;;;;8.89;58.28;100501.72;5031066;28;20444;-55
2022/09/11 01:26:58;;;;;;;40.60;15.63;;;;;;;8.88;58.26;100511.56;5031306;28;20032;-55
2022/09/11 01:29:35;;;;;;;32.90;14.38;;;;;;;8.76;58.36;100498.94;5013951;28;20038;-56
2022/09/11 01:32:14;;;;;;;27.90;13.82;;;;;;;8.78;58.46;100498.88;5011669;28;20072;-54
2022/09/11 01:34:44;;;;;;;36.15;15.18;;;;;;;8.68;58.47;100496.78;5022248;28;20099;-54
2022/09/11 01:37:17;;;;;;;30.52;15.00;;;;;;;8.63;58.55;100480.16;5030798;28;20052;-54
2022/09/11 01:39:48;;;;;;;28.85;14.75;;;;;;;8.65;58.88;100493.44;5030758;28;20120;-57
2022/09/11 01:42:21;;;;;;;40.20;14.70;;;;;;;8.63;58.34;100487.34;5028620;28;20026;-56
2022/09/11 01:44:53;;;;;;;28.92;14.13;;;;;;;8.63;58.49;100485.50;5031077;28;20042;-55
2022/09/11 01:47:21;;;;;;;32.83;15.05;;;;;;;8.36;58.89;100448.88;5021704;28;20512;-55
2022/09/11 01:49:55;;;;;;;38.95;14.63;;;;;;;8.56;58.83;100479.72;5011279;28;20061;-55
2022/09/11 01:52:28;;;;;;;33.38;14.02;;;;;;;8.56;58.78;100485.06;5011470;28;20040;-56
2022/09/11 01:55:00;;;;;;;35.30;14.68;;;;;;;8.51;58.80;100483.63;5024710;28;20029;-55
2022/09/11 01:57:35;;;;;;;28.10;13.88;;;;;;;8.54;58.75;100491.44;5030960;28;20052;-56
2022/09/11 02:00:05;;;;;;;30.52;15.02;;;;;;;8.46;59.24;100479.38;5013983;28;20038;-59
2022/09/11 02:02:39;;;;;;;29.38;14.23;;;;;;;8.51;59.11;100483.63;5013517;28;20040;-61
2022/09/11 02:05:17;;;;;;;36.72;14.90;;;;;;;8.53;59.43;100484.38;5030638;28;20037;-55
2022/09/11 02:07:53;;;;;;;32.15;15.13;;;;;;;8.51;59.46;100475.59;5017961;28;20491;-58
2022/09/11 02:10:23;;;;;;;;;;;;;;;8.73;57.03;100476.00;5011524;28;20040;-51
2022/09/11 02:13:11;;;;;;;32.75;14.18;;;;;;;8.58;58.81;100482.28;5013634;28;19921;-52
2022/09/11 02:15:43;;;;;;;38.05;15.25;;;;;;;8.46;58.90;100479.38;5030121;28;20118;-58
2022/09/11 02:18:18;;;;;;;30.85;14.90;;;;;;;8.47;58.89;100486.44;5030800;28;20037;-57
2022/09/11 02:20:46;;;;;;;29.45;14.55;;;;;;;8.38;59.16;100480.81;5017987;28;20156;-51
2022/09/11 02:23:13;;;;;;;34.55;14.95;;;;;;;8.36;59.45;100491.56;5010667;28;20041;-56
2022/09/11 02:25:40;;;;;;;30.92;14.25;;;;;;;8.32;59.52;100482.91;5014022;28;20505;-55
2022/09/11 02:28:05;;;;;;;37.42;14.73;;;;;;;8.14;59.55;100455.50;5029291;28;20393;-58
2022/09/11 02:30:31;;;;;;;34.20;15.07;;;;;;;8.25;59.88;100476.19;5029678;28;20035;-55
2022/09/11 02:32:57;;;;;;;32.25;14.60;;;;;;;8.28;59.80;100478.69;5019185;28;20045;-56
2022/09/11 02:35:29;;;;;;;37.83;14.70;;;;;;;8.35;59.63;100476.50;5010735;28;20117;-54
2022/09/11 02:38:30;;;;;;;27.58;14.98;;;;;;;8.34;59.51;100472.13;5016100;28;20529;-54
2022/09/11 02:41:16;;;;;;;32.83;13.95;;;;;;;8.39;59.26;100467.34;5028106;28;20425;-53
2022/09/11 02:44:03;;;;;;;31.77;14.13;;;;;;;8.43;59.47;100476.88;5027717;28;20486;-52
2022/09/11 02:46:35;;;;;;;27.33;14.18;;;;;;;8.42;59.68;100482.31;5013698;28;20069;-57
2022/09/11 02:49:23;;;;;;;33.75;14.93;;;;;;;8.48;59.34;100477.47;5015248;28;20437;-58
2022/09/11 02:52:11;;;;;;;28.98;14.73;;;;;;;8.48;59.68;100485.50;5027209;28;20041;-56
2022/09/11 02:55:08;;;;;;;27.15;14.07;;;;;;;8.50;59.30;100474.72;5034434;28;20037;-56
2022/09/11 02:57:42;;;;;;;25.98;14.32;;;;;;;8.29;59.40;100444.88;5022863;28;20034;-61
2022/09/11 03:00:08;;;;;;;24.85;14.38;;;;;;;8.39;59.46;100470.03;5013376;28;20069;-55
2022/09/11 03:02:39;;;;;;;28.98;14.73;;;;;;;8.53;59.49;100476.38;5015392;28;20064;-61
2022/09/11 03:05:05;;;;;;;21.90;14.52;;;;;;;8.51;59.53;100467.59;5034293;28;20084;-58
2022/09/11 03:07:32;;;;;;;27.95;15.07;;;;;;;8.59;59.44;100465.31;5035142;28;20049;-56
2022/09/11 03:09:57;;;;;;;28.05;14.48;;;;;;;8.44;59.44;100438.59;5020926;28;20044;-53
2022/09/11 03:12:23;;;;;;;25.35;13.85;;;;;;;8.68;58.87;100462.06;5014110;28;20045;-51
2022/09/11 03:14:49;;;;;;;29.42;14.02;;;;;;;8.73;59.29;100467.97;5014224;28;20076;-55
2022/09/11 03:17:16;;;;;;;32.60;15.10;;;;;;;8.79;59.08;100466.72;5030773;28;20039;-55
2022/09/11 03:19:41;;;;;;;29.70;16.45;;;;;;;8.91;58.30;100462.41;5033583;28;20065;-56
2022/09/11 03:22:07;;;;;;;27.40;14.98;;;;;;;8.92;58.46;100440.09;5032492;28;20061;-53
2022/09/11 03:24:32;;;;;;;31.63;15.43;;;;;;;9.54;57.01;100459.31;5033565;28;20479;-58
2022/09/11 03:26:57;;;;;;;29.88;14.45;;;;;;;10.25;54.40;100456.34;5033868;28;20461;-54
2022/09/11 03:29:23;;;;;;;26.55;14.48;;;;;;;10.89;52.99;100453.66;5015952;28;20034;-52
2022/09/11 03:31:49;;;;;;;31.67;15.50;;;;;;;11.71;50.90;100462.03;5013983;28;20037;-56
2022/09/11 03:34:16;;;;;;;25.88;14.40;;;;;;;12.69;47.86;100460.81;5022514;28;20065;-58
2022/09/11 03:36:42;;;;;;;25.30;14.63;;;;;;;13.60;45.57;100455.28;5033999;28;20026;-56
2022/09/11 03:39:08;;;;;;;23.33;13.70;;;;;;;14.43;43.07;100445.66;5033633;28;20072;-53
2022/09/11 03:41:34;;;;;;;26.38;13.85;;;;;;;15.10;41.39;100447.94;5014044;28;20065;-55
2022/09/11 03:44:00;;;;;;;29.45;14.32;;;;;;;15.76;39.91;100449.16;5013569;28;20441;-55
2022/09/11 03:46:26;;;;;;;25.40;13.98;;;;;;;16.41;38.31;100443.13;5015318;28;20458;-57
2022/09/11 03:48:52;;;;;;;26.98;13.57;;;;;;;16.76;37.41;100429.91;5033980;28;20543;-54
2022/09/11 03:51:18;;;;;;;23.17;13.70;;;;;;;17.10;36.52;100440.13;5032208;28;20037;-54
2022/09/11 03:53:44;;;;;;;27.67;14.15;;;;;;;17.26;36.19;100435.91;5020465;28;20339;-56
2022/09/11 03:56:10;;;;;;;29.00;13.63;;;;;;;17.44;35.63;100439.47;5013786;28;20050;-55
2022/09/11 03:58:36;;;;;;;25.80;14.13;;;;;;;17.84;34.93;100445.41;5016647;28;20436;-58
2022/09/11 04:01:09;;;;;;;25.90;13.48;;;;;;;18.13;34.50;100406.41;5032397;28;20029;-57
2022/09/11 04:03:35;;;;;;;23.55;12.57;;;;;;;19.06;32.59;100440.13;5033252;28;20033;-58
2022/09/11 04:06:01;;;;;;;23.67;13.75;;;;;;;19.47;31.91;100443.94;5026244;28;20360;-54
2022/09/11 04:08:32;;;;;;;21.70;12.93;;;;;;;19.87;30.83;100439.56;5011971;28;20492;-58
2022/09/11 04:10:59;;;;;;;24.38;13.20;;;;;;;20.22;30.54;100442.13;5013084;28;20049;-55
2022/09/11 04:13:34;;;;;;;24.27;13.98;;;;;;;21.13;29.24;100436.41;5030955;28;20462;-57
2022/09/11 04:16:01;;;;;;;22.67;13.30;;;;;;;21.89;27.93;100435.72;5033063;28;20037;-59
2022/09/11 04:18:29;;;;;;;25.27;14.48;;;;;;;22.56;26.54;100441.44;5022283;28;20080;-58
2022/09/11 04:20:54;;;;;;;25.85;14.20;;;;;;;23.03;25.67;100442.03;5012480;28;20030;-57
2022/09/11 04:23:20;;;;;;;27.02;14.15;;;;;;;23.45;25.12;100434.13;5013530;28;20386;-58
2022/09/11 04:25:46;;;;;;;31.08;14.02;;;;;;;23.59;25.08;100440.59;5032609;28;20045;-56
2022/09/11 04:28:13;;;;;;;27.27;14.00;;;;;;;24.00;24.34;100447.28;5032776;28;20030;-58
2022/09/11 04:30:39;;;;;;;31.27;13.68;;;;;;;24.65;23.56;100438.09;5021001;28;20080;-58
2022/09/11 04:33:05;;;;;;;23.73;13.05;;;;;;;25.49;22.50;100438.88;5012963;28;20037;-54
2022/09/11 04:35:36;;;;;;;29.58;13.45;;;;;;;26.20;21.35;100438.53;5014802;28;20048;-56
2022/09/11 04:38:01;;;;;;;26.13;13.77;;;;;;;27.04;20.22;100433.25;5031271;28;20107;-59
2022/09/11 04:40:27;;;;;;;24.13;12.38;;;;;;;27.96;18.84;100439.47;5032314;28;20412;-57
2022/09/11 04:42:52;;;;;;;26.42;12.50;;;;;;;28.84;18.20;100439.50;5018556;28;20044;-57
2022/09/11 04:45:18;;;;;;;26.70;12.02;;;;;;;29.51;17.41;100430.31;5012287;28;20053;-55
2022/09/11 04:47:43;;;;;;;19.27;12.18;;;;;;;29.75;17.26;100432.31;5016215;28;20385;-58
2022/09/11 04:50:08;;;;;;;24.83;12.15;;;;;;;29.71;16.99;100431.94;5032216;28;20382;-57
2022/09/11 04:52:34;;;;;;;28.60;11.43;;;;;;;29.80;17.00;100429.69;5031888;28;20029;-60
2022/09/11 04:55:00;;;;;;;29.00;12.98;;;;;;;29.88;16.49;100432.09;5016900;28;20620;-58
2022/09/11 04:57:28;;;;;;;21.73;11.77;;;;;;;29.91;16.60;100428.88;5012157;28;20030;-56
2022/09/11 04:59:54;;;;;;;27.05;11.82;;;;;;;29.99;16.66;100418.56;5010653;28;20072;-59
2022/09/11 05:02:20;;;;;;;26.52;11.65;;;;;;;30.18;15.90;100430.34;5027513;28;20045;-58
2022/09/11 05:04:46;;;;;;;21.02;12.15;;;;;;;30.14;16.25;100429.97;5031964;28;20218;-58
2022/09/11 05:07:15;;;;;;;20.83;11.93;;;;;;;30.45;15.94;100435.38;5023283;28;20084;-59
2022/09/11 05:09:40;;;;;;;24.65;12.13;;;;;;;30.81;15.69;100430.66;5011540;28;20042;-59
2022/09/11 05:12:06;;;;;;;21.05;11.07;;;;;;;31.29;15.04;100425.81;5012019;28;20022;-59
2022/09/11 05:14:31;;;;;;;22.00;11.15;;;;;;;31.75;14.52;100438.81;5030688;28;20125;-58
2022/09/11 05:16:57;;;;;;;17.17;10.38;;;;;;;32.36;13.60;100446.50;5031609;28;20484;-59
2022/09/11 05:19:24;;;;;;;17.35;10.93;;;;;;;32.89;13.75;100426.69;5021608;28;20030;-60
2022/09/11 05:21:49;;;;;;;20.17;10.15;;;;;;;33.32;13.36;100429.66;5011787;28;20415;-59
2022/09/11 05:24:15;;;;;;;16.67;9.77;;;;;;;33.47;12.90;100432.63;5011876;28;20080;-60
2022/09/11 05:26:41;;;;;;;22.35;9.30;;;;;;;33.84;12.59;100428.22;5031101;28;20060;-60
2022/09/11 05:29:11;;;;;;;17.25;10.23;;;;;;;34.65;11.76;100428.22;5031200;28;20033;-59
2022/09/11 05:31:36;;;;;;;16.02;9.35;;;;;;;35.61;11.45;100430.75;5019574;28;20037;-58
2022/09/11 05:34:02;;;;;;;14.23;8.70;;;;;;;36.05;10.73;100397.91;5011633;28;20033;-58
2022/09/11 05:36:29;;;;;;;16.17;8.77;;;;;;;36.35;10.33;100424.03;5011319;28;20394;-59
2022/09/11 05:38:55;;;;;;;15.82;9.30;;;;;;;37.03;10.20;100425.50;5017030;28;20070;-58
2022/09/11 05:41:21;;;;;;;18.27;8.95;;;;;;;37.58;9.46;100426.56;5011565;28;20478;-59
2022/09/11 05:43:47;;;;;;;14.18;8.88;;;;;;;38.39;9.27;100428.88;5015883;28;20406;-57
2022/09/11 05:46:15;;;;;;;16.33;8.60;;;;;;;38.60;9.01;100428.69;5031209;28;20036;-60
2022/09/11 05:48:41;;;;;;;15.20;8.93;;;;;;;39.11;8.42;100418.78;5031512;28;20068;-59
2022/09/11 05:51:13;;;;;;;12.07;7.82;;;;;;;39.53;8.86;100416.19;5023389;28;20100;-59
2022/09/11 05:53:39;;;;;;;14.70;7.78;;;;;;;39.36;8.42;100416.72;5011599;28;20034;-59
2022/09/11 05:56:13;;;;;;;13.65;7.63;;;;;;;40.01;8.49;100419.88;5010947;28;20107;-60
2022/09/11 05:58:38;;;;;;;15.25;8.10;;;;;;;39.80;8.39;100405.38;5022329;28;20416;-60
2022/09/11 06:01:12;;;;;;;20.10;8.10;;;;;;;40.17;8.41;100426.06;5030485;28;20041;-59
2022/09/11 06:03:38;;;;;;;12.80;7.65;;;;;;;40.27;7.88;100411.00;5028905;28;20342;-60
2022/09/11 06:06:07;;;;;;;14.70;8.43;;;;;;;40.88;7.81;100419.31;5030751;28;20046;-60
2022/09/11 06:08:35;;;;;;;18.92;8.70;;;;;;;41.29;7.50;100404.34;5020978;28;20168;-60
2022/09/11 06:11:05;;;;;;;12.75;7.88;;;;;;;41.15;7.48;100403.53;5022172;28;20390;-59
2022/09/11 06:13:37;;;;;;;11.18;6.88;;;;;;;40.90;7.80;100405.78;5030675;28;20479;-61
2022/09/11 06:16:04;;;;;;;10.70;6.88;;;;;;;40.72;7.53;100402.81;5015236;28;20116;-59
2022/09/11 06:18:29;;;;;;;12.05;6.40;;;;;;;40.48;7.70;100403.84;5010759;28;20030;-59
2022/09/11 06:21:03;;;;;;;12.13;6.45;;;;;;;39.51;8.08;100407.25;5013966;28;20059;-60
2022/09/11 06:23:28;;;;;;;11.07;7.00;;;;;;;38.29;8.81;100382.28;5014892;28;20030;-61
2022/09/11 06:26:01;;;;;;;8.15;5.90;;;;;;;38.30;9.03;100409.13;5014771;28;20220;-60
2022/09/11 06:28:27;;;;;;;7.32;5.20;;;;;;;37.94;8.88;100398.28;5032542;28;20037;-59
2022/09/11 06:30:52;;;;;;;10.52;5.40;;;;;;;37.58;9.17;100401.41;5034423;28;20110;-59
2022/09/11 06:33:22;;;;;;;6.97;5.07;;;;;;;36.97;9.87;100401.50;5032756;28;20478;-59
2022/09/11 06:35:57;;;;;;;9.05;5.03;;;;;;;37.04;10.09;100402.03;5034556;28;20026;-60
2022/09/11 06:38:24;;;;;;;8.73;5.50;;;;;;;36.09;10.10;100399.00;5032754;28;20033;-62
2022/09/11 06:40:50;;;;;;;8.77;5.25;;;;;;;36.03;10.35;100392.59;5014655;28;20040;-57
2022/09/11 06:43:16;;;;;;;9.05;5.10;;;;;;;36.16;10.27;100385.59;5014606;28;20480;-58
2022/09/11 06:45:42;;;;;;;7.43;5.22;;;;;;;36.67;9.67;100388.53;5024335;28;20112;-58
2022/09/11 06:48:07;;;;;;;7.65;4.47;;;;;;;36.91;9.38;100397.06;5013958;28;20121;-56
2022/09/11 06:50:39;;;;;;;7.63;4.70;;;;;;;37.37;9.81;100397.91;5016818;28;20045;-58
2022/09/11 06:53:09;;;;;;;5.35;3.97;;;;;;;37.61;9.06;100389.66;5032369;28;20040;-55
2022/09/11 06:55:35;;;;;;;7.53;3.63;;;;;;;36.47;10.03;100388.31;5033881;28;20029;-53
2022/09/11 06:58:01;;;;;;;5.50;3.40;;;;;;;35.52;10.60;100368.41;5033946;28;20048;-61
2022/09/11 07:00:27;;;;;;;4.07;3.20;;;;;;;34.80;11.38;100376.56;5032384;28;20029;-57
2022/09/11 07:02:53;;;;;;;6.15;4.20;;;;;;;34.54;11.48;100382.03;5017742;28;20048;-55
2022/09/11 07:05:21;;;;;;;11.00;4.47;;;;;;;34.59;11.23;100384.84;5032147;28;20033;-55
2022/09/11 07:07:49;;;;;;;6.55;4.75;;;;;;;35.43;10.79;100378.38;5034190;28;20045;-56
2022/09/11 07:10:15;;;;;;;8.95;4.22;;;;;;;36.52;10.45;100383.88;5033462;28;20432;-58
2022/09/11 07:12:40;;;;;;;6.07;4.25;;;;;;;37.23;9.68;100380.97;5013745;28;20040;-55
2022/09/11 07:15:07;;;;;;;7.07;4.03;;;;;;;38.06;8.90;100375.56;5013939;28;20108;-60
2022/09/11 07:17:33;;;;;;;7.80;4.00;;;;;;;38.37;8.58;100379.97;5014277;28;20030;-57
2022/09/11 07:19:59;;;;;;;5.78;3.58;;;;;;;38.30;8.61;100374.72;5014084;28;20103;-58
2022/09/11 07:22:24;;;;;;;7.35;3.90;;;;;;;38.44;8.38;100372.91;5013632;28;20045;-57
2022/09/11 07:24:53;;;;;;;6.50;4.40;;;;;;;38.75;8.38;100372.50;5031189;28;20437;-55
2022/09/11 07:27:19;;;;;;;7.40;4.30;;;;;;;38.28;8.86;100371.41;5033527;28;20036;-59
2022/09/11 07:29:45;;;;;;;8.60;4.28;;;;;;;37.11;9.55;100365.44;5028952;28;20025;-55
2022/09/11 07:32:11;;;;;;;11.00;4.35;;;;;;;35.80;9.91;100356.94;5012806;28;20037;-57
2022/09/11 07:34:36;;;;;;;5.93;4.20;;;;;;;34.26;10.84;100356.31;5013322;28;20076;-57
2022/09/11 07:37:02;;;;;;;6.38;3.90;;;;;;;33.28;11.87;100350.81;5013997;28;20521;-57
2022/09/11 07:39:27;;;;;;;7.68;4.28;;;;;;;32.85;12.17;100364.50;5013398;28;20042;-58
2022/09/11 07:41:53;;;;;;;4.28;3.00;;;;;;;32.66;12.00;100356.53;5013413;28;20096;-53
2022/09/11 07:44:19;;;;;;;4.53;3.08;;;;;;;32.62;11.89;100349.84;5029446;28;20026;-55
2022/09/11 07:46:45;;;;;;;8.23;3.60;;;;;;;32.91;11.97;100346.84;5033268;28;20030;-55
2022/09/11 07:49:10;;;;;;;5.38;3.30;;;;;;;33.25;11.93;100338.31;5027542;28;20037;-53
2022/09/11 07:51:36;;;;;;;6.40;3.15;;;;;;;32.81;11.64;100319.00;5031098;28;20041;-56
2022/09/11 07:54:02;;;;;;;8.57;3.67;;;;;;;32.32;12.68;100343.63;5033003;28;20025;-56
2022/09/11 07:56:29;;;;;;;4.45;3.30;;;;;;;31.26;12.96;100323.97;5022530;28;20103;-55
2022/09/11 07:58:55;;;;;;;7.43;3.30;;;;;;;29.78;14.35;100352.66;5013411;28;20041;-57
2022/09/11 08:01:26;;;;;;;9.02;3.72;;;;;;;28.41;15.48;100346.75;5013483;28;20074;-59
2022/09/11 08:04:15;;;;;;;8.40;3.25;;;;;;;27.11;17.02;100344.44;5025560;28;20048;-57
2022/09/11 08:06:41;;;;;;;4.35;2.80;;;;;;;25.57;18.38;100339.16;5032664;28;20041;-56
2022/09/11 08:09:13;;;;;;;5.10;2.92;;;;;;;24.82;19.40;100344.66;5023071;28;20038;-55
2022/09/11 08:11:45;;;;;;;6.55;3.58;;;;;;;24.21;19.88;100360.75;5014771;28;20802;-57
2022/09/11 08:14:12;;;;;;;7.38;3.70;;;;;;;23.40;20.79;100337.41;5021696;28;20140;-61
2022/09/11 08:16:38;;;;;;;4.63;3.60;;;;;;;23.11;20.89;100358.31;5031683;28;20120;-58
2022/09/11 08:19:05;;;;;;;7.10;4.07;;;;;;;22.60;21.75;100351.84;5031541;28;20569;-57
2022/09/11 08:21:30;;;;;;;6.53;3.65;;;;;;;22.03;22.42;100321.44;5021792;28;20100;-56
2022/09/11 08:23:56;;;;;;;7.93;3.88;;;;;;;21.75;22.88;100331.09;5012495;28;20390;-61
2022/09/11 08:26:29;;;;;;;6.28;4.28;;;;;;;21.60;23.14;100327.47;5013687;28;20029;-60
2022/09/11 08:28:57;;;;;;;8.18;4.68;;;;;;;21.22;24.48;100347.38;5030558;28;20362;-58
2022/09/11 08:31:25;;;;;;;10.40;5.15;;;;;;;20.72;25.00;100328.56;5032351;28;20037;-57
2022/09/11 08:33:51;;;;;;;9.02;4.65;;;;;;;20.25;25.82;100345.75;5030546;28;20692;-58
2022/09/11 08:36:18;;;;;;;11.05;5.18;;;;;;;20.13;25.81;100321.66;5032028;28;20029;-56
2022/09/11 08:38:44;;;;;;;12.32;5.18;;;;;;;19.92;26.21;100335.84;5026671;28;20037;-59
2022/09/11 08:41:25;;;;;;;10.68;4.78;;;;;;;19.91;26.06;100334.13;5012538;28;20124;-54
2022/09/11 08:43:55;;;;;;;11.27;5.18;;;;;;;19.61;26.50;100331.94;5010413;28;20038;-54
2022/09/11 08:46:25;;;;;;;8.68;4.60;;;;;;;19.44;26.97;100316.66;5013027;28;20042;-57
2022/09/11 08:49:09;;;;;;;8.93;4.40;;;;;;;19.48;26.73;100315.28;5012827;28;20038;-54
2022/09/11 08:51:35;;;;;;;5.38;4.50;;;;;;;19.29;27.39;100320.06;5012846;28;20057;-56
2022/09/11 08:54:02;;;;;;;5.47;4.55;;;;;;;19.39;27.16;100310.88;5012473;28;20032;-57
2022/09/11 08:56:30;;;;;;;6.28;4.30;;;;;;;19.69;26.57;100324.78;5012057;28;20034;-55
2022/09/11 08:59:05;;;;;;;9.60;3.55;;;;;;;19.94;26.10;100299.28;5025530;28;20042;-57
2022/09/11 09:01:34;;;;;;;7.38;3.80;;;;;;;20.16;25.45;100305.00;5031794;28;20111;-56
2022/09/11 09:04:18;;;;;;;7.95;4.05;;;;;;;20.23;25.23;100316.03;5031788;28;20243;-57
2022/09/11 09:07:02;;;;;;;;;;;;;;;20.89;23.66;100312.19;5129428;27;20731;-57
2022/09/11 09:09:41;;;;;;;8.00;4.20;;;;;;;20.39;24.90;100315.13;5129171;28;19917;-54
2022/09/11 09:12:22;;;;;;;7.72;3.78;;;;;;;20.35;24.96;100316.50;5128890;28;20471;-53
2022/09/11 09:14:48;;;;;;;5.85;3.72;;;;;;;20.20;25.53;100306.34;5129329;28;20043;-57
2022/09/11 09:17:19;;;;;;;6.43;3.75;;;;;;;20.22;25.39;100295.31;5128544;28;20042;-58
2022/09/11 09:20:07;;;;;;;9.25;3.92;;;;;;;20.17;25.45;100305.88;5108693;28;20028;-54
2022/09/11 09:22:41;;;;;;;8.30;4.45;;;;;;;20.12;25.70;100294.66;5108602;28;20524;-56
2022/09/11 09:25:12;;;;;;;9.93;4.13;;;;;;;20.10;25.99;100300.28;5123229;28;20331;-57
2022/09/11 09:27:44;;;;;;;5.72;3.70;;;;;;;19.87;26.34;100289.25;5124183;28;20036;-60
2022/09/11 09:30:23;;;;;;;5.95;3.83;;;;;;;20.01;25.77;100294.03;5124950;28;20028;-56
2022/09/11 09:33:00;;;;;;;9.52;3.47;;;;;;;20.02;25.37;100289.44;5126354;28;20043;-57
2022/09/11 09:35:38;;;;;;;5.45;3.05;;;;;;;20.21;25.00;100301.78;5126491;27;20038;-55
2022/09/11 09:38:20;;;;;;;8.57;3.33;;;;;;;20.25;25.07;100296.81;5125930;27;20032;-59
2022/09/11 09:41:00;;;;;;;5.28;3.30;;;;;;;20.39;24.72;100293.38;5126893;27;20065;-58
2022/09/11 09:43:54;;;;;;;8.55;3.45;;;;;;;20.50;24.60;100292.13;5128452;27;20035;-58
2022/09/11 09:46:47;;;;;;;3.65;3.05;;;;;;;20.44;24.54;100290.97;5128258;28;20067;-59
2022/09/11 09:49:23;;;;;;;4.30;2.83;;;;;;;20.33;24.96;100296.81;5115854;28;20032;-57
2022/09/11 09:51:50;;;;;;;8.52;3.72;;;;;;;20.25;25.36;100315.84;5128471;27;20042;-56
2022/09/11 09:54:19;;;;;;;5.15;3.00;;;;;;;20.15;25.48;100295.16;5127713;27;20031;-55
2022/09/11 09:56:52;;;;;;;8.93;3.25;;;;;;;20.02;25.59;100297.59;5128323;27;20027;-56
2022/09/11 09:59:25;;;;;;;12.85;3.20;;;;;;;19.92;25.58;100297.78;5127965;27;20088;-54
2022/09/11 10:01:53;;;;;;;5.15;3.00;;;;;;;19.77;25.98;100301.19;5128530;27;20071;-55
2022/09/11 10:04:28;;;;;;;5.22;3.30;;;;;;;19.73;26.02;100293.53;5127691;27;20039;-54
2022/09/11 10:07:04;;;;;;;5.18;2.67;;;;;;;19.67;26.18;100289.66;5127836;27;20151;-54
2022/09/11 10:09:30;;;;;;;8.57;3.50;;;;;;;19.63;26.43;100293.72;5127518;27;20046;-55
2022/09/11 10:12:01;;;;;;;6.10;3.20;;;;;;;19.62;26.55;100286.59;5127068;28;20118;-52
2022/09/11 10:14:31;;;;;;;5.28;3.30;;;;;;;19.42;26.55;100270.69;5128502;27;20034;-52
2022/09/11 10:16:59;;;;;;;5.00;3.65;;;;;;;19.45;26.77;100300.19;5121188;27;20467;-54
2022/09/11 10:19:38;;;;;;;7.15;3.47;;;;;;;19.46;26.77;100284.75;5114317;28;20383;-55
2022/09/11 10:22:22;;;;;;;4.40;3.30;;;;;;;19.51;26.68;100285.94;5114177;28;20043;-55
2022/09/11 10:25:08;;;;;;;8.00;3.53;;;;;;;19.54;26.95;100283.91;5113721;28;20103;-57
2022/09/11 10:27:58;;;;;;;6.30;3.30;;;;;;;19.60;26.81;100285.91;5114321;28;20072;-55
2022/09/11 10:30:38;;;;;;;8.25;3.75;;;;;;;19.67;26.69;100291.50;5108037;28;20036;-56
2022/09/11 10:33:27;;;;;;;8.55;3.47;;;;;;;19.79;26.65;100273.84;5113763;28;20104;-58
2022/09/11 10:35:54;;;;;;;9.20;3.70;;;;;;;19.78;26.79;100278.41;5113063;28;20027;-55
2022/09/11 10:38:30;;;;;;;7.82;3.63;;;;;;;19.78;26.88;100285.75;5113572;28;20032;-55
2022/09/11 10:41:18;;;;;;;5.05;3.30;;;;;;;19.89;26.42;100285.34;5114516;28;20031;-58
2022/09/11 10:44:00;;;;;;;6.82;3.25;;;;;;;19.71;26.97;100290.16;5112906;28;20475;-58
2022/09/11 10:46:33;;;;;;;6.22;3.30;;;;;;;19.53;26.76;100283.03;5114104;28;20416;-56
2022/09/11 10:49:05;;;;;;;5.78;3.75;;;;;;;19.37;27.15;100278.47;5112605;28;20024;-55
2022/09/11 10:51:33;;;;;;;10.13;4.82;;;;;;;19.16;27.59;100279.00;5113471;28;20115;-59
2022/09/11 10:54:36;;;;;;;5.72;3.63;;;;;;;19.27;27.36;100278.63;5112013;28;20115;-56
2022/09/11 10:57:19;;;;;;;11.20;3.60;;;;;;;19.11;27.42;100246.91;5111683;28;20501;-59
2022/09/11 10:59:47;;;;;;;6.30;3.20;;;;;;;19.26;27.47;100273.41;5113583;28;20467;-54
2022/09/11 11:02:19;;;;;;;7.60;3.67;;;;;;;19.24;27.57;100280.88;5113181;28;20170;-58
2022/09/11 11:04:46;;;;;;;9.88;3.65;;;;;;;19.10;27.61;100241.69;5112293;28;20023;-56
2022/09/11 11:07:32;;;;;;;4.20;3.03;;;;;;;19.38;27.21;100252.19;5111862;28;20066;-54
2022/09/11 11:10:02;;;;;;;7.45;3.50;;;;;;;19.38;27.43;100249.47;5112811;28;20024;-56
2022/09/11 11:12:31;;;;;;;5.22;3.78;;;;;;;19.50;27.29;100253.50;5113089;28;20796;-54
2022/09/11 11:15:26;;;;;;;9.65;3.33;;;;;;;19.65;27.02;100259.94;5113408;28;20039;-55
2022/09/11 11:18:12;;;;;;;5.68;3.13;;;;;;;19.59;26.95;100255.22;5107038;28;20127;-53
2022/09/11 11:21:12;;;;;;;4.32;3.03;;;;;;;19.62;27.04;100256.72;5113307;28;20491;-52
2022/09/11 11:24:11;;;;;;;4.43;2.88;;;;;;;19.43;27.17;100249.78;5112748;28;20035;-54
2022/09/11 11:27:11;;;;;;;7.03;2.95;;;;;;;19.45;27.11;100243.19;5103876;28;20120;-54
2022/09/11 11:29:55;;;;;;;6.47;3.00;;;;;;;19.61;27.10;100241.44;5095199;28;20031;-56
2022/09/11 11:32:45;;;;;;;8.25;2.97;;;;;;;19.65;26.98;100246.34;5112885;27;20036;-55
2022/09/11 11:35:27;;;;;;;6.50;3.33;;;;;;;19.42;27.54;100240.81;5112411;28;20490;-51
2022/09/11 11:38:02;;;;;;;9.82;3.80;;;;;;;19.48;27.40;100252.84;5113310;28;20084;-55